Latest Coastal Weather Observations for Yeppoon

IDQ60701

Issued at 5:32 pm EST Tuesday 26 May 2020 (issued every 10 minutes, with the page automatically refreshed every 10 minutes)

About coastal observations | Map of coastal stations | Coastal observations for QLD | Marine services | Other Formats
Station Details ID: 033294 Name: YEPPOON THE ESPLANADE Lat: -23.14 Lon: 150.75 Height: 5.5 m
Data from the previous 72 hours. | See also: Recent months at Yeppoon
Date/Time
EST
Wind Sea
Height
m
Swell Vis
km
Cloud Weather Temp
°C
Press
hPa
Rain since
9am
mm
Dir  Spd
kts
Gust
kts
Height
m
Period
s
Dir
26/05:30pm NNE 5 6 - - - - - - - 19.7 1018.2 0.0
26/05:00pm NE 5 7 - - - - - - - 19.8 1018.2 0.0
26/04:30pm NE 8 9 - - - - - - - 20.0 1018.0 0.0
26/04:00pm NE 8 9 - - - - - - - 20.2 1018.1 0.0
26/03:30pm ENE 9 10 - - - - - - - 20.4 1017.8 0.0
26/03:00pm ENE 7 9 - - - - - - - 20.6 1017.9 0.0
26/02:30pm ENE 7 8 - - - - - - - 20.8 1018.1 0.0
26/02:00pm ENE 8 10 - - - - - - - 20.8 1018.1 0.0
26/01:30pm ENE 8 9 - - - - - - - 20.6 1018.4 0.0
26/01:00pm E 9 10 - - - - - - - 20.4 1018.6 0.0
26/12:30pm E 9 9 - - - - - - - 20.7 1019.2 0.0
26/12:00pm ENE 8 9 - - - - - - - 20.1 1019.6 0.0
26/11:30am E 7 9 - - - - - - - 20.1 1019.8 0.0
26/11:00am W 5 6 - - - - - - - 20.1 1020.2 0.0
26/10:30am W 2 5 - - - - - - - 20.3 1020.3 0.0
26/10:00am W 5 7 - - - - - - - 19.2 1020.4 0.0
26/09:30am W 6 9 - - - - - - - 17.3 1020.6 0.0
26/09:00am W 7 10 - - - - - - - 15.7 1020.4 0.0
26/08:30am W 9 12 - - - - - - - 14.5 1020.3 0.0
26/08:00am W 10 12 - - - - - - - 13.2 1020.0 0.0
26/07:30am WSW 7 9 - - - - - - - 12.1 1020.0 0.0
26/07:00am WSW 6 8 - - - - - - - 11.2 1019.8 0.0
26/06:30am WSW 8 11 - - - - - - - 10.8 1019.5 0.0
26/06:00am WSW 8 10 - - - - - - - 11.3 1019.1 0.0
26/05:30am WSW 6 8 - - - - - - - 11.3 1018.6 0.0
26/05:00am WSW 6 9 - - - - - - - 11.4 1018.3 0.0
26/04:30am WSW 8 9 - - - - - - - 11.7 1018.2 0.0
26/04:00am WSW 7 10 - - - - - - - 12.1 1018.1 0.0
26/03:30am WSW 6 9 - - - - - - - 11.9 1018.2 0.0
26/03:00am WSW 7 8 - - - - - - - 11.9 1017.7 0.0
26/02:30am W 8 10 - - - - - - - 12.5 1018.1 0.0
26/02:00am W 9 12 - - - - - - - 12.6 1018.4 0.0
26/01:30am WSW 8 11 - - - - - - - 12.2 1018.7 0.0
26/01:00am WSW 9 11 - - - - - - - 12.4 1018.6 0.0
26/12:30am WSW 8 10 - - - - - - - 12.2 1018.6 0.0
26/12:00am WSW 8 9 - - - - - - - 12.6 1018.6 0.0
 
Date/Time
EST
Wind Sea
Height
m
Swell Vis
km
Cloud Weather Temp
°C
Press
hPa
Rain since
9am
mm
Dir  Spd
kts
Gust
kts
Height
m
Period
s
Dir
25/11:30pm W 8 9 - - - - - - - 12.8 1018.7 0.0
25/11:00pm W 8 10 - - - - - - - 13.0 1018.7 0.0
25/10:30pm NW 5 6 - - - - - - - 12.4 1018.7 0.0
25/10:00pm NW 6 6 - - - - - - - 12.2 1018.8 0.0
25/09:30pm NNW 7 8 - - - - - - - 12.2 1018.6 0.0
25/09:00pm N 1 4 - - - - - - - 12.8 1018.5 0.0
25/08:30pm CALM 0 3 - - - - - - - 13.6 1018.5 0.0
25/08:00pm N 3 5 - - - - - - - 15.1 1018.3 0.0
25/07:30pm N 3 5 - - - - - - - 15.9 1017.9 0.0
25/07:00pm N 4 6 - - - - - - - 16.0 1017.6 0.0
25/06:30pm NNW 6 9 - - - - - - - 17.2 1017.2 0.0
25/06:00pm N 7 8 - - - - - - - 17.1 1016.8 0.0
25/05:30pm N 7 8 - - - - - - - 17.4 1016.5 0.0
25/05:00pm N 10 14 - - - - - - - 18.0 1016.1 0.0
25/04:30pm NNE 11 13 - - - - - - - 18.8 1015.7 0.0
25/04:00pm NE 8 11 - - - - - - - 18.8 1015.6 0.0
25/03:30pm NE 9 11 - - - - - - - 19.1 1015.6 0.0
25/03:00pm NE 8 10 - - - - - - - 19.3 1015.6 0.0
25/02:30pm NE 8 11 - - - - - - - 19.4 1015.6 0.0
25/02:00pm NE 7 9 - - - - - - - 19.6 1016.1 0.0
25/01:30pm NE 7 9 - - - - - - - 19.4 1016.2 0.0
25/01:00pm NE 8 11 - - - - - - - 18.9 1016.3 0.0
25/12:30pm NE 6 7 - - - - - - - 19.0 1016.7 0.0
25/12:00pm NE 6 8 - - - - - - - 18.5 1016.9 0.0
25/11:30am NE 7 9 - - - - - - - 18.5 1017.1 0.0
25/11:00am NNW 5 7 - - - - - - - 18.8 1017.4 0.0
25/10:30am WNW 5 7 - - - - - - - 18.3 1017.7 0.0
25/10:00am W 4 7 - - - - - - - 17.4 1017.9 0.0
25/09:30am W 7 9 - - - - - - - 15.7 1018.0 0.0
25/09:00am W 8 10 - - - - - - - 14.0 1017.8 0.2
25/08:30am WSW 7 8 - - - - - - - 12.7 1017.8 0.2
25/08:00am WSW 5 7 - - - - - - - 11.2 1017.6 0.2
25/07:30am WSW 5 6 - - - - - - - 9.9 1017.6 0.2
25/07:00am WSW 6 8 - - - - - - - 8.3 1017.3 0.2
25/06:30am W 5 6 - - - - - - - 7.9 1017.2 0.2
25/06:00am W 5 6 - - - - - - - 8.4 1017.1 0.2
25/05:30am W 7 8 - - - - - - - 8.5 1016.8 0.2
25/05:00am W 5 7 - - - - - - - 8.5 1016.5 0.2
25/04:30am W 7 11 - - - - - - - 8.9 1016.1 0.2
25/04:00am WSW 7 8 - - - - - - - 9.2 1015.9 0.2
25/03:30am WSW 5 7 - - - - - - - 9.4 1016.0 0.2
25/03:00am W 10 12 - - - - - - - 9.7 1016.0 0.2
25/02:30am W 10 12 - - - - - - - 10.2 1016.3 0.2
25/02:00am W 10 11 - - - - - - - 10.1 1016.4 0.2
25/01:30am W 9 10 - - - - - - - 10.1 1016.4 0.2
25/01:00am W 9 11 - - - - - - - 10.8 1016.4 0.2
25/12:30am W 6 9 - - - - - - - 10.1 1016.5 0.2
25/12:00am W 7 8 - - - - - - - 9.9 1016.8 0.2
 
Date/Time
EST
Wind Sea
Height
m
Swell Vis
km
Cloud Weather Temp
°C
Press
hPa
Rain since
9am
mm
Dir  Spd
kts
Gust
kts
Height
m
Period
s
Dir
24/11:30pm W 7 8 - - - - - - - 9.8 1017.0 0.2
24/11:00pm W 8 9 - - - - - - - 9.8 1017.1 0.2
24/10:30pm W 3 5 - - - - - - - 10.6 1017.2 0.2
24/10:00pm W 5 6 - - - - - - - 10.7 1017.2 0.2
24/09:30pm W 6 6 - - - - - - - 10.7 1016.9 0.2
24/09:00pm W 5 7 - - - - - - - 11.0 1016.6 0.2
24/08:30pm W 7 7 - - - - - - - 11.1 1016.4 0.2
24/08:00pm W 5 6 - - - - - - - 11.8 1016.1 0.2
24/07:30pm W 5 6 - - - - - - - 12.3 1015.7 0.2
24/07:00pm WSW 6 7 - - - - - - - 12.1 1015.0 0.2
24/06:30pm SW 6 7 - - - - - - - 13.7 1014.5 0.2
24/06:00pm SW 5 6 - - - - - - - 14.7 1013.9 0.2
24/05:30pm SW 5 6 - - - - - - - 15.5 1013.5 0.2
24/05:00pm SW 8 13 - - - - - - - 17.3 1013.2 0.2
24/04:30pm WSW 10 16 - - - - - - - 18.1 1013.1 0.2
24/04:00pm WSW 9 15 - - - - - - - 18.3 1012.9 0.2
24/03:30pm WSW 12 19 - - - - - - - 18.3 1012.6 0.2
24/03:00pm WSW 11 17 - - - - - - - 18.6 1012.4 0.2
24/02:30pm WSW 10 16 - - - - - - - 18.7 1012.5 0.2
24/02:00pm WSW 8 13 - - - - - - - 18.7 1013.0 0.2
24/01:30pm WSW 9 14 - - - - - - - 18.3 1013.5 0.0
24/01:00pm WSW 10 16 - - - - - - - 17.9 1014.2 0.0
24/12:30pm W 9 14 - - - - - - - 17.5 1014.8 0.0
24/12:00pm WSW 8 12 - - - - - - - 17.0 1015.3 0.0
24/11:30am WSW 9 14 - - - - - - - 16.4 1015.7 0.0
24/11:00am WSW 7 12 - - - - - - - 15.9 1016.2 0.0
24/10:30am SW 10 15 - - - - - - - 15.8 1016.4 0.0
24/10:00am SW 9 14 - - - - - - - 15.5 1016.5 0.0
24/09:30am SW 9 14 - - - - - - - 14.1 1016.5 0.0
24/09:00am SW 7 11 - - - - - - - 13.0 1016.5 8.2
24/08:30am WSW 7 11 - - - - - - - 11.8 1016.4 8.2
24/08:00am WSW 8 11 - - - - - - - 10.9 1016.2 8.2
24/07:30am WSW 10 12 - - - - - - - 9.7 1015.8 8.2
24/07:00am WSW 10 13 - - - - - - - 9.1 1015.4 8.2
24/06:30am W 8 10 - - - - - - - 9.0 1015.4 8.2
24/06:00am W 8 11 - - - - - - - 9.3 1015.2 8.2
24/05:30am WSW 7 9 - - - - - - - 9.6 1015.1 8.2
24/05:00am WSW 9 12 - - - - - - - 9.9 1014.5 8.2
24/04:30am WSW 10 13 - - - - - - - 10.3 1014.3 8.2
24/04:00am WSW 9 12 - - - - - - - 10.3 1014.4 8.2
24/03:30am WSW 9 12 - - - - - - - 10.3 1014.2 8.2
24/03:00am WSW 7 9 - - - - - - - 10.1 1013.7 8.2
24/02:30am WSW 6 9 - - - - - - - 10.2 1014.1 8.2
24/02:00am WSW 7 10 - - - - - - - 10.3 1014.0 8.2
24/01:30am WSW 7 11 - - - - - - - 10.6 1014.7 8.2
24/01:00am WSW 10 13 - - - - - - - 10.7 1015.1 8.2
24/12:30am W 10 13 - - - - - - - 10.8 1015.1 8.2
24/12:00am W 10 13 - - - - - - - 10.7 1015.9 8.2
 
Date/Time
EST
Wind Sea
Height
m
Swell Vis
km
Cloud Weather Temp
°C
Press
hPa
Rain since
9am
mm
Dir  Spd
kts
Gust
kts
Height
m
Period
s
Dir
23/11:30pm W 9 12 - - - - - - - 10.9 1014.9 8.2
23/11:00pm W 7 10 - - - - - - - 11.1 1015.5 8.2
23/10:30pm WSW 7 9 - - - - - - - 11.2 1015.0 8.2
23/10:00pm W 6 8 - - - - - - - 11.3 1015.2 8.2
23/09:40pm W 6 12 - - - - - - - 11.3 1014.1 8.2
23/09:30pm WSW 6 12 - - - - - - - 11.3 1016.3 8.2
23/09:00pm WSW 7 11 - - - - - - - 11.3 1014.4 8.2
23/08:46pm W 6 11 - - - - - - - 11.4 1014.6 8.2
23/08:30pm W 6 10 - - - - - - - 11.5 1016.7 8.2
23/08:00pm WNW 6 11 - - - - - - - 11.4 1015.6 8.2
23/07:30pm W 3 6 - - - - - - - 11.3 1015.1 8.2
23/07:09pm W 4 8 - - - - - - - 11.4 1015.9 8.2
23/07:00pm W 5 10 - - - - - - - 11.3 1013.6 8.2
23/06:30pm W 6 9 - - - - - - - 11.4 1015.5 8.2
23/06:29pm W 7 10 - - - - - - - 11.4 1015.5 8.2
23/06:00pm W 5 8 - - - - - - - 11.4 1013.5 8.2

Other formats

Comma delimited format used in spreadsheet applications
http://www.bom.gov.au/fwo/IDQ60701/IDQ60701.94373.axf

JavaScript Object Notation format (JSON) in row-major order
http://www.bom.gov.au/fwo/IDQ60701/IDQ60701.94373.json

Data quality

Most of these data are generated automatically and are frequently updated. Quality checks on data are not normally performed. It is possible for incorrect values to appear. Refer to information at About Latest Weather Observations and please check the disclaimer before using these data.